Time;durP1;ratioP1;P1;durP2;ratioP2;P2;SDS_P1;SDS_P2;PMS_P1;PMS_P2;Temp;Humidity;BMP_temperature;BMP_pressure;BME280_temperature;BME280_humidity;BME280_pressure;Samples;Min_cycle;Max_cycle;Signal;HPM_P1;HPM_P2
2023/03/09 00:00:10;;;;;;;42.67;30.53;;;3.70;99.90;;;3.64;99.13;99007.84;5033591;28;20050;-69
2023/03/09 00:02:40;;;;;;;45.50;32.03;;;3.70;99.90;;;3.53;99.25;99012.28;5034667;28;20075;-62
2023/03/09 00:05:12;;;;;;;43.78;31.40;;;3.60;99.90;;;3.48;99.57;99002.75;5034313;28;20088;-68
2023/03/09 00:07:41;;;;;;;42.57;30.63;;;3.50;99.90;;;3.40;99.49;99012.38;5034225;28;20045;-68
2023/03/09 00:10:12;;;;;;;42.90;30.77;;;3.40;99.90;;;3.38;99.89;99003.69;5034143;28;20041;-68
2023/03/09 00:12:41;;;;;;;44.77;32.87;;;3.50;99.90;;;3.57;99.60;99034.03;5034466;28;20073;-69
2023/03/09 00:15:11;;;;;;;48.10;32.83;;;3.60;99.90;;;3.61;99.35;99027.91;5034370;28;20412;-68
2023/03/09 00:17:45;;;;;;;45.10;31.57;;;3.70;99.90;;;3.78;99.05;99077.47;5034054;28;20124;-68
2023/03/09 00:20:17;;;;;;;41.20;29.17;;;3.70;99.90;;;3.72;98.37;99067.06;5034017;28;20049;-69
2023/03/09 00:22:49;;;;;;;40.17;29.33;;;3.80;99.90;;;3.85;98.64;99082.66;5034251;28;20038;-68
2023/03/09 00:25:18;;;;;;;40.57;30.37;;;3.80;99.90;;;3.85;98.49;99085.28;5033904;28;20042;-69
2023/03/09 00:27:49;;;;;;;39.83;28.93;;;3.80;99.90;;;3.83;98.05;99071.34;5032874;28;20037;-69
2023/03/09 00:30:19;;;;;;;37.53;27.83;;;3.90;99.90;;;3.82;97.43;99058.25;5033498;28;20121;-69
2023/03/09 00:32:49;;;;;;;45.90;29.20;;;3.80;99.90;;;3.72;97.79;99048.78;5033815;28;20045;-69
2023/03/09 00:35:20;;;;;;;39.83;28.50;;;3.80;99.90;;;3.76;97.62;99067.03;5034057;28;20049;-69
2023/03/09 00:37:48;;;;;;;40.03;27.23;;;3.70;99.90;;;3.85;97.62;99090.50;5033662;28;20452;-69
2023/03/09 00:40:17;;;;;;;38.57;26.77;;;3.80;99.90;;;3.87;97.40;99086.09;5033651;28;20041;-69
2023/03/09 00:42:47;;;;;;;35.53;26.73;;;3.90;99.90;;;3.89;96.99;99073.88;5032603;28;20647;-69
2023/03/09 00:45:17;;;;;;;;;;;3.80;99.90;;;3.90;97.00;99062.56;5032658;28;20057;-69
2023/03/09 00:47:45;;;;;;;37.37;26.17;;;3.90;99.90;;;4.00;96.87;99072.09;5033761;28;20004;-69
2023/03/09 00:50:15;;;;;;;40.67;27.17;;;3.90;99.90;;;3.82;96.73;99046.06;5032334;28;20049;-69
2023/03/09 00:52:44;;;;;;;38.83;26.92;;;3.90;99.90;;;3.83;96.38;99058.28;5034140;28;20133;-68
2023/03/09 00:55:13;;;;;;;37.43;27.17;;;3.90;99.90;;;3.90;96.51;99054.72;5033623;28;20038;-69
2023/03/09 00:57:42;;;;;;;43.70;29.80;;;3.80;99.90;;;3.76;96.53;99040.88;5031960;28;20089;-68
2023/03/09 01:00:12;;;;;;;40.70;27.27;;;3.80;99.90;;;3.60;96.51;99055.78;5033493;28;20038;-68
2023/03/09 01:02:41;;;;;;;41.23;27.83;;;3.70;99.90;;;3.72;96.91;99069.69;5033266;28;20369;-69
2023/03/09 01:05:10;;;;;;;39.70;28.83;;;3.70;99.90;;;3.79;96.89;99095.78;5032220;28;20459;-69
2023/03/09 01:07:41;;;;;;;39.60;28.57;;;3.70;99.90;;;3.81;96.46;99090.53;5033391;28;20447;-68
2023/03/09 01:10:11;;;;;;;;;;;3.80;99.90;;;3.91;95.98;99113.97;5033485;28;20049;-69
2023/03/09 01:12:40;;;;;;;36.15;26.40;;;3.90;99.90;;;4.05;95.94;99117.38;5033924;28;20374;-69
2023/03/09 01:15:10;;;;;;;35.97;27.00;;;4.00;99.90;;;3.94;95.76;99116.59;5032019;28;20160;-69
2023/03/09 01:17:39;;;;;;;45.22;28.95;;;4.00;99.90;;;4.03;95.53;99132.22;5031905;28;20080;-69
2023/03/09 01:20:13;;;;;;;37.70;27.40;;;4.00;99.90;;;3.99;96.01;99116.56;5031883;28;20053;-69
2023/03/09 01:22:43;;;;;;;40.03;28.80;;;4.00;99.90;;;4.06;95.45;99113.91;5031837;28;20073;-69
2023/03/09 01:25:11;;;;;;;40.47;29.20;;;4.00;99.90;;;4.04;95.49;99104.31;5032915;28;20049;-69
2023/03/09 01:27:40;;;;;;;42.93;29.23;;;4.00;99.90;;;3.92;95.22;99084.34;5032794;28;20041;-69
2023/03/09 01:30:11;;;;;;;40.07;29.10;;;4.00;99.90;;;3.63;95.08;99031.38;5033014;28;20038;-69
2023/03/09 01:32:39;;;;;;;38.77;27.73;;;4.10;99.90;;;4.17;95.30;99116.41;5031795;28;20050;-69
2023/03/09 01:35:08;;;;;;;38.63;27.80;;;4.10;99.90;;;4.06;95.37;99105.19;5032970;28;20393;-69
2023/03/09 01:37:37;;;;;;;38.73;28.50;;;4.10;99.90;;;4.13;95.00;99112.09;5032924;28;20052;-69
2023/03/09 01:40:11;;;;;;;37.90;27.40;;;4.10;99.90;;;4.11;95.34;99140.88;5031722;28;20053;-69
2023/03/09 01:42:41;;;;;;;38.00;26.60;;;4.10;99.90;;;4.12;95.05;99139.97;5032092;28;20049;-70
2023/03/09 01:46:08;;;;;;;38.87;26.00;;;4.10;99.90;;;4.13;94.41;99149.59;5031278;28;20073;-70
2023/03/09 01:48:37;;;;;;;35.00;24.23;;;4.10;99.90;;;4.06;94.30;99142.66;5032755;28;20092;-69
2023/03/09 01:51:05;;;;;;;33.80;24.10;;;4.10;99.90;;;4.10;94.36;99138.28;5032491;28;20124;-69
2023/03/09 01:53:34;;;;;;;32.50;23.20;;;4.10;99.90;;;4.03;93.86;99134.81;5031557;28;20062;-69
2023/03/09 01:56:04;;;;;;;32.23;22.80;;;4.10;99.90;;;4.12;94.35;99132.13;5032367;28;20041;-68
2023/03/09 01:58:34;;;;;;;31.73;22.57;;;4.10;99.90;;;4.15;93.74;99142.59;5031484;28;20496;-69
2023/03/09 02:01:03;;;;;;;29.37;21.90;;;4.10;99.90;;;3.96;93.67;99114.84;5031481;28;20077;-69
2023/03/09 02:03:37;;;;;;;30.20;22.00;;;4.10;99.90;;;4.14;93.14;99138.22;5032630;28;20511;-69
2023/03/09 02:06:14;;;;;;;30.13;22.47;;;4.10;99.90;;;3.69;93.10;99049.66;5031481;28;20064;-69
2023/03/09 02:08:56;;;;;;;27.67;22.07;;;4.10;99.90;;;4.07;92.94;99115.63;5031464;28;20428;-69
2023/03/09 02:11:26;;;;;;;29.47;21.93;;;4.20;99.90;;;4.16;93.15;99146.94;5032746;28;20053;-69
2023/03/09 02:13:55;;;;;;;28.00;21.40;;;4.10;99.90;;;4.17;92.71;99153.03;5032694;28;20394;-69
2023/03/09 02:16:23;;;;;;;29.30;20.80;;;4.20;99.90;;;4.26;92.37;99166.06;5031275;28;20045;-69
2023/03/09 02:18:52;;;;;;;26.97;21.20;;;4.20;99.90;;;4.25;92.08;99159.97;5032504;28;20038;-69
2023/03/09 02:21:32;;;;;;;28.77;20.80;;;4.20;99.90;;;4.05;91.98;99169.69;5031172;28;20084;-69
2023/03/09 02:24:09;;;;;;;30.42;21.90;;;4.10;99.90;;;3.91;92.26;99162.81;5031287;28;20053;-69
2023/03/09 02:26:44;;;;;;;26.67;20.97;;;4.10;99.90;;;4.15;92.44;99192.31;5031313;28;20389;-69
2023/03/09 02:29:16;;;;;;;27.03;19.93;;;4.10;99.90;;;4.02;92.09;99161.88;5031261;28;20159;-69
2023/03/09 02:31:45;;;;;;;23.80;18.98;;;4.10;99.90;;;4.06;91.82;99181.91;5031167;28;20571;-69
2023/03/09 02:34:14;;;;;;;23.60;19.20;;;4.10;99.90;;;4.01;92.17;99174.94;5032439;28;20041;-69
2023/03/09 02:36:47;;;;;;;24.33;19.90;;;4.00;99.90;;;4.14;92.07;99172.22;5015488;28;20132;-69
2023/03/09 02:39:27;;;;;;;24.80;18.67;;;4.10;99.90;;;4.27;91.85;99186.13;5031360;28;20045;-69
2023/03/09 02:41:58;;;;;;;25.50;19.48;;;4.20;99.90;;;4.13;91.70;99170.50;5031161;28;20455;-69
2023/03/09 02:44:31;;;;;;;26.57;19.00;;;4.20;99.90;;;4.01;91.67;99170.56;5031119;28;20049;-70
2023/03/09 02:47:01;;;;;;;25.63;19.35;;;4.10;99.90;;;3.84;92.07;99166.31;5031122;28;20056;-69
2023/03/09 02:49:29;;;;;;;26.38;19.38;;;3.90;99.90;;;3.77;92.61;99186.41;5030962;28;20088;-69
2023/03/09 02:51:58;;;;;;;24.07;18.63;;;3.80;99.90;;;3.84;92.51;99193.34;5031089;28;20049;-70
2023/03/09 02:54:27;;;;;;;28.43;19.40;;;3.80;99.90;;;3.75;92.70;99187.28;5033493;28;20069;-70
2023/03/09 02:56:56;;;;;;;24.10;18.47;;;3.80;99.90;;;3.87;93.25;99190.69;5034119;28;20057;-69
2023/03/09 02:59:24;;;;;;;24.27;19.43;;;3.80;99.90;;;3.96;92.98;99203.75;5034522;28;20042;-70
2023/03/09 03:01:55;;;;;;;26.00;19.23;;;3.90;99.90;;;3.82;92.98;99182.00;5034401;28;20055;-69
2023/03/09 03:04:24;;;;;;;24.80;18.15;;;3.80;99.90;;;3.72;93.26;99148.94;5036003;28;20049;-69
2023/03/09 03:06:54;;;;;;;25.33;18.80;;;3.80;99.90;;;3.84;92.90;99185.50;5034420;28;20424;-69
2023/03/09 03:09:23;;;;;;;22.47;18.13;;;3.90;99.90;;;3.92;93.30;99191.56;5033691;28;20420;-69
2023/03/09 03:11:53;;;;;;;21.40;17.10;;;3.90;99.90;;;3.91;93.54;99199.41;5033489;28;20063;-70
2023/03/09 03:14:21;;;;;;;23.70;18.73;;;3.80;99.90;;;3.99;93.21;99213.34;5033656;28;20423;-69
2023/03/09 03:16:50;;;;;;;24.20;19.00;;;3.90;99.90;;;4.00;93.32;99201.97;5034529;28;20044;-69
2023/03/09 03:19:22;;;;;;;23.65;18.50;;;4.00;99.90;;;4.01;93.27;99204.56;5033595;28;20111;-69
2023/03/09 03:21:51;;;;;;;21.00;16.70;;;4.00;99.90;;;4.11;92.88;99211.50;5033161;28;20053;-69
2023/03/09 03:24:20;;;;;;;23.30;18.07;;;4.00;99.90;;;4.05;92.48;99221.13;5033318;28;20064;-69
2023/03/09 03:26:50;;;;;;;20.50;17.00;;;4.10;99.90;;;4.02;92.58;99185.41;5033018;28;20110;-69
2023/03/09 03:29:22;;;;;;;23.37;17.77;;;4.00;99.90;;;3.96;92.44;99185.44;5033571;28;20054;-69
2023/03/09 03:31:52;;;;;;;22.80;17.23;;;4.00;99.90;;;4.07;92.75;99209.78;5033296;28;20064;-69
2023/03/09 03:34:23;;;;;;;24.38;18.17;;;4.00;99.90;;;4.01;92.36;99219.41;5033327;28;20109;-69
2023/03/09 03:36:52;;;;;;;25.65;17.50;;;4.00;99.90;;;4.09;92.68;99226.34;5017141;28;20050;-69
2023/03/09 03:39:22;;;;;;;25.95;18.45;;;4.00;99.90;;;4.16;92.63;99243.72;5033221;28;20037;-69
2023/03/09 03:41:56;;;;;;;26.77;18.83;;;4.10;99.90;;;4.10;92.41;99238.56;5033260;28;20583;-69
2023/03/09 03:44:25;;;;;;;26.60;18.17;;;4.10;99.90;;;3.88;92.14;99234.28;5033145;28;20382;-69
2023/03/09 03:46:54;;;;;;;22.93;18.37;;;4.00;99.90;;;3.42;92.60;99128.19;5033117;28;20424;-69
2023/03/09 03:49:25;;;;;;;23.40;18.07;;;4.00;99.90;;;4.28;92.44;99266.34;5033196;28;20065;-69
2023/03/09 03:51:54;;;;;;;;;;;4.20;99.90;;;4.37;92.10;99266.31;5033132;28;20049;-69
2023/03/09 03:54:22;;;;;;;23.03;17.57;;;4.30;99.90;;;4.41;91.47;99276.72;5033005;28;20337;-70
2023/03/09 03:56:51;;;;;;;22.63;18.77;;;4.40;99.90;;;4.02;91.21;99197.59;5032715;28;20067;-69
2023/03/09 03:59:21;;;;;;;22.77;18.13;;;4.40;99.90;;;4.42;91.26;99265.41;5032850;28;20060;-69
2023/03/09 04:01:50;;;;;;;;;;;4.50;99.90;;;4.57;91.02;99288.88;5033465;28;20493;-69
2023/03/09 04:04:18;;;;;;;24.87;18.30;;;4.50;99.90;;;4.55;90.66;99279.28;5032722;28;19971;-69
2023/03/09 04:06:52;;;;;;;23.03;18.87;;;4.50;99.90;;;4.52;90.33;99269.72;5032918;28;20420;-69
2023/03/09 04:09:23;;;;;;;25.50;18.57;;;4.50;99.90;;;4.46;90.45;99267.13;5032702;28;20060;-69
2023/03/09 04:11:52;;;;;;;25.53;18.60;;;4.40;99.90;;;4.39;90.63;99286.34;5032422;28;20523;-69
2023/03/09 04:14:20;;;;;;;24.63;18.67;;;4.40;99.90;;;4.38;90.69;99294.19;5032318;28;20041;-69
2023/03/09 04:16:49;;;;;;;25.87;18.83;;;4.30;99.90;;;4.44;91.18;99295.06;5034232;28;20385;-69
2023/03/09 04:19:18;;;;;;;25.93;18.43;;;4.40;99.90;;;4.44;90.62;99310.75;5032442;28;20045;-69
2023/03/09 04:21:47;;;;;;;29.00;20.63;;;4.40;99.90;;;4.38;91.04;99302.94;5032486;28;20567;-69
2023/03/09 04:24:18;;;;;;;25.63;19.90;;;4.40;99.90;;;4.42;90.74;99309.00;5032557;28;20050;-69
2023/03/09 04:26:46;;;;;;;24.85;18.45;;;4.40;99.90;;;4.35;90.78;99308.19;5034173;28;20049;-69
2023/03/09 04:29:39;;;;;;;26.00;19.43;;;4.30;99.90;;;4.13;91.37;99322.22;5027578;28;20050;-69
2023/03/09 04:32:09;;;;;;;25.67;18.60;;;4.20;99.90;;;4.09;91.48;99309.16;5033236;28;20558;-69
2023/03/09 04:34:38;;;;;;;24.83;19.17;;;4.10;99.90;;;4.11;91.24;99300.44;5032140;28;20480;-69
2023/03/09 04:37:07;;;;;;;23.80;18.43;;;4.20;99.90;;;4.23;91.03;99323.06;5033338;28;20507;-69
2023/03/09 04:39:37;;;;;;;24.63;19.20;;;4.20;99.90;;;4.19;91.34;99330.06;5032002;28;20511;-69
2023/03/09 04:42:06;;;;;;;23.75;19.23;;;4.20;99.90;;;4.26;91.26;99337.00;5033389;28;20465;-69
2023/03/09 04:44:35;;;;;;;25.15;18.13;;;4.20;99.90;;;4.21;90.92;99338.78;5033019;28;20136;-69
2023/03/09 04:47:06;;;;;;;25.60;19.97;;;4.20;99.90;;;4.28;91.52;99330.00;5031740;28;20515;-69
2023/03/09 04:49:34;;;;;;;;;;;4.20;99.90;;;4.08;91.47;99325.75;5032227;28;20103;-69
2023/03/09 04:52:04;;;;;;;25.70;19.90;;;4.10;99.90;;;4.12;91.47;99327.47;5048446;28;19921;-69
2023/03/09 04:54:32;;;;;;;29.47;21.20;;;4.10;99.90;;;3.75;91.94;99324.09;5031715;28;20042;-69
2023/03/09 04:57:03;;;;;;;29.67;21.23;;;3.90;99.90;;;3.92;92.78;99310.97;5031513;28;20061;-70
2023/03/09 04:59:33;;;;;;;27.27;20.60;;;3.90;99.90;;;2.92;93.33;99193.63;5031710;28;20041;-70
2023/03/09 05:02:02;;;;;;;26.53;20.17;;;3.70;99.90;;;3.65;93.70;99311.91;5033137;28;20057;-69
2023/03/09 05:04:38;;;;;;;29.07;22.07;;;3.70;99.90;;;3.84;93.23;99320.56;5032687;28;20042;-70
2023/03/09 05:07:07;;;;;;;30.43;21.17;;;3.80;99.90;;;4.03;93.27;99337.94;5032515;28;20453;-69
2023/03/09 05:09:35;;;;;;;27.73;21.33;;;3.90;99.90;;;4.02;93.01;99347.56;5031340;28;20136;-69
2023/03/09 05:12:06;;;;;;;27.27;20.57;;;4.00;99.90;;;4.13;92.96;99350.13;5031320;28;20077;-69
2023/03/09 05:14:37;;;;;;;27.33;20.80;;;4.10;99.90;;;4.10;92.74;99360.63;5031373;28;20080;-70
2023/03/09 05:17:06;;;;;;;26.63;20.30;;;4.10;99.90;;;4.25;92.37;99364.06;5031102;28;20056;-70
2023/03/09 05:19:36;;;;;;;26.90;20.13;;;4.20;99.90;;;4.25;92.16;99350.97;5031232;28;20364;-70
2023/03/09 05:22:05;;;;;;;29.92;21.30;;;4.20;99.90;;;4.01;91.94;99365.84;5032251;28;20416;-70
2023/03/09 05:24:34;;;;;;;30.27;21.35;;;4.10;99.90;;;4.11;92.04;99378.91;5031158;28;20053;-69
2023/03/09 05:27:04;;;;;;;27.73;20.27;;;4.10;99.90;;;3.25;92.14;99239.72;5031099;28;20054;-70
2023/03/09 05:29:34;;;;;;;27.37;20.33;;;4.00;99.90;;;3.75;92.96;99368.53;5030970;28;20055;-70
2023/03/09 05:32:03;;;;;;;29.87;21.57;;;3.70;99.90;;;3.49;94.00;99372.91;5030677;28;20136;-69
2023/03/09 05:34:34;;;;;;;33.97;21.63;;;3.60;99.90;;;3.78;93.62;99376.38;5031083;28;20096;-69
2023/03/09 05:37:04;;;;;;;29.10;20.30;;;3.70;99.90;;;3.31;93.43;99266.66;5030657;28;20060;-68
2023/03/09 05:39:36;;;;;;;29.63;21.37;;;3.90;99.90;;;3.91;92.87;99356.31;5032094;28;20393;-69
2023/03/09 05:42:07;;;;;;;31.77;22.13;;;4.00;99.90;;;4.18;92.69;99390.25;5031234;28;20052;-70
2023/03/09 05:44:38;;;;;;;28.03;21.23;;;4.10;99.90;;;4.30;92.18;99374.47;5030968;28;20463;-69
2023/03/09 05:47:07;;;;;;;28.50;20.97;;;4.20;99.90;;;4.14;92.07;99323.09;5032207;28;20400;-70
2023/03/09 05:49:35;;;;;;;29.80;21.67;;;4.30;99.90;;;4.42;91.49;99375.31;5030952;28;20045;-69
2023/03/09 05:52:04;;;;;;;31.40;22.57;;;4.40;99.90;;;4.29;91.21;99350.09;5032462;28;20060;-69
2023/03/09 05:54:36;;;;;;;31.30;21.93;;;4.40;99.90;;;4.25;91.13;99374.53;5030941;28;20057;-69
2023/03/09 05:57:12;;;;;;;33.37;22.70;;;4.30;99.90;;;4.25;91.69;99386.72;5030764;28;20104;-69
2023/03/09 05:59:42;;;;;;;33.50;23.43;;;4.20;99.90;;;4.04;91.34;99385.06;5032163;28;20050;-69
2023/03/09 06:02:10;;;;;;;34.17;23.93;;;4.10;99.90;;;4.04;91.34;99399.88;5030704;28;20045;-69
2023/03/09 06:04:42;;;;;;;31.07;22.13;;;4.10;99.90;;;4.30;91.61;99404.16;5030773;28;20057;-70
2023/03/09 06:07:12;;;;;;;30.23;21.77;;;4.20;99.90;;;4.47;91.28;99415.41;5030793;28;20115;-69
2023/03/09 06:09:45;;;;;;;32.93;24.27;;;4.30;99.90;;;4.14;91.03;99384.13;5031280;28;20053;-69
2023/03/09 06:12:20;;;;;;;31.73;22.87;;;4.30;99.90;;;4.22;91.19;99407.69;5030441;28;20050;-69
2023/03/09 06:14:52;;;;;;;34.77;23.77;;;4.20;99.90;;;3.73;91.95;99406.88;5030454;28;20096;-69
2023/03/09 06:17:23;;;;;;;35.97;25.03;;;3.90;99.90;;;3.93;92.40;99423.41;5030756;28;20045;-69
2023/03/09 06:19:53;;;;;;;34.60;23.70;;;4.00;99.90;;;3.84;92.01;99433.88;5030593;28;20045;-69
2023/03/09 06:22:22;;;;;;;36.93;25.60;;;3.90;99.90;;;3.90;92.79;99441.72;5030665;28;20500;-69
2023/03/09 06:24:51;;;;;;;39.37;25.27;;;3.90;99.90;;;3.54;92.94;99450.44;5030603;28;20050;-70
2023/03/09 06:27:22;;;;;;;37.77;24.90;;;3.60;99.90;;;3.30;94.50;99445.19;5032001;28;20068;-70
2023/03/09 06:29:50;;;;;;;37.75;24.60;;;3.40;99.90;;;3.39;95.21;99449.53;5035895;28;20519;-69
2023/03/09 06:32:19;;;;;;;37.73;25.53;;;3.30;99.90;;;3.80;95.49;99465.25;5034509;28;20512;-69
2023/03/09 06:34:49;;;;;;;36.77;24.70;;;3.60;99.90;;;3.78;94.51;99443.47;5034481;28;20121;-69
2023/03/09 06:37:19;;;;;;;39.65;26.15;;;3.80;99.90;;;3.64;93.80;99457.41;5034561;28;20108;-69
2023/03/09 06:39:48;;;;;;;37.55;25.70;;;3.70;99.90;;;3.74;94.87;99466.13;5034380;28;20053;-70
2023/03/09 06:42:17;;;;;;;39.40;25.93;;;3.70;99.90;;;3.46;94.80;99453.94;5034884;28;20100;-69
2023/03/09 06:44:52;;;;;;;38.87;26.57;;;3.50;99.90;;;3.45;96.49;99475.69;5034457;28;20045;-70
2023/03/09 06:47:23;;;;;;;39.60;27.77;;;3.40;99.90;;;3.43;95.95;99495.72;5034570;28;20083;-69
2023/03/09 06:49:58;;;;;;;38.87;26.73;;;3.40;99.90;;;3.90;96.06;99486.19;5034314;28;20050;-69
2023/03/09 06:52:28;;;;;;;39.00;27.55;;;3.70;99.90;;;4.04;94.89;99478.34;5034533;28;20045;-69
2023/03/09 06:54:57;;;;;;;40.20;28.20;;;3.90;99.90;;;4.21;94.54;99469.59;5035347;28;20076;-69
2023/03/09 06:57:46;;;;;;;40.93;28.27;;;4.10;99.90;;;3.35;94.03;99345.91;5035742;28;20108;-69
2023/03/09 07:00:17;;;;;;;40.43;27.67;;;4.10;99.90;;;3.76;93.93;99385.97;5037041;28;20129;-69
2023/03/09 07:02:50;;;;;;;40.27;28.23;;;4.20;99.90;;;4.47;93.56;99504.41;5035153;28;20045;-69
2023/03/09 07:05:19;;;;;;;40.05;27.00;;;4.40;99.90;;;4.61;92.82;99503.53;5035523;28;20464;-69
2023/03/09 07:07:48;;;;;;;38.53;27.03;;;4.50;99.90;;;4.61;92.30;99516.63;5035244;28;20071;-70
2023/03/09 07:10:17;;;;;;;40.37;27.33;;;4.50;99.90;;;4.57;91.90;99529.72;5034855;28;20096;-69
2023/03/09 07:12:48;;;;;;;40.97;27.93;;;4.50;99.90;;;4.30;91.28;99510.56;5034760;28;20049;-69
2023/03/09 07:15:18;;;;;;;40.30;26.63;;;4.50;99.90;;;4.18;92.38;99534.97;5034871;28;20447;-69
2023/03/09 07:17:47;;;;;;;40.45;26.90;;;4.20;99.90;;;4.27;92.88;99529.78;5034789;28;20049;-69
2023/03/09 07:20:16;;;;;;;41.77;28.67;;;4.20;99.90;;;4.31;92.85;99536.75;5035029;28;20128;-69
2023/03/09 07:22:44;;;;;;;41.30;26.50;;;4.20;99.90;;;3.74;92.81;99416.47;5034985;28;20065;-69
2023/03/09 07:25:13;;;;;;;43.80;28.30;;;4.40;99.90;;;4.58;92.16;99552.41;5034767;28;20048;-69
2023/03/09 07:27:41;;;;;;;43.50;28.67;;;4.50;99.90;;;4.54;92.02;99549.78;5034570;28;20042;-69
2023/03/09 07:30:12;;;;;;;39.20;27.10;;;4.50;99.90;;;4.64;91.41;99571.59;5034636;28;20430;-69
2023/03/09 07:32:42;;;;;;;42.47;28.20;;;4.60;99.90;;;4.75;91.51;99583.78;5034623;28;20464;-69
2023/03/09 07:35:10;;;;;;;42.03;29.27;;;4.70;99.90;;;4.84;91.32;99577.66;5034697;28;20042;-68
2023/03/09 07:37:40;;;;;;;41.80;28.20;;;4.80;99.90;;;4.92;90.59;99589.84;5034820;28;20114;-69
2023/03/09 07:40:11;;;;;;;42.23;28.23;;;4.90;99.90;;;4.48;91.33;99578.59;5033341;28;20069;-69
2023/03/09 07:42:40;;;;;;;41.70;28.70;;;4.50;99.90;;;4.18;91.67;99544.59;5034768;28;20041;-68
2023/03/09 07:45:19;;;;;;;41.23;28.17;;;4.40;99.90;;;3.83;92.32;99470.50;5033369;28;20049;-70
2023/03/09 07:47:50;;;;;;;42.58;29.10;;;4.40;99.90;;;4.53;91.58;99556.75;5033659;28;20038;-67
2023/03/09 07:50:20;;;;;;;44.83;30.63;;;4.50;99.90;;;4.54;91.52;99563.75;5034463;28;20380;-69
2023/03/09 07:52:49;;;;;;;50.37;30.63;;;4.50;99.90;;;4.47;91.56;99566.38;5034496;28;20060;-69
2023/03/09 07:55:21;;;;;;;45.30;29.47;;;4.40;99.90;;;4.27;91.61;99563.78;5034158;28;20065;-70
2023/03/09 07:57:50;;;;;;;43.97;28.50;;;4.30;99.90;;;4.40;91.69;99573.38;5034011;28;20391;-69
2023/03/09 08:00:23;;;;;;;47.20;30.03;;;4.30;99.90;;;4.59;91.69;99576.81;5034290;28;20662;-69
2023/03/09 08:02:53;;;;;;;46.77;29.27;;;4.50;99.90;;;4.53;91.74;99569.84;5032949;28;20049;-72
2023/03/09 08:05:23;;;;;;;48.58;31.00;;;4.50;99.90;;;4.15;91.92;99561.16;5034357;28;20041;-69
2023/03/09 08:07:52;;;;;;;;;;;4.30;99.90;;;4.06;93.99;99555.94;5034119;28;20063;-69
2023/03/09 08:10:20;;;;;;;49.03;31.47;;;4.10;99.90;;;4.14;93.96;99558.56;5049180;28;19924;-70
2023/03/09 08:12:50;;;;;;;47.70;30.80;;;4.10;99.90;;;4.00;94.22;99565.50;5034089;28;20049;-70
2023/03/09 08:15:22;;;;;;;53.42;32.85;;;3.90;99.90;;;3.82;94.96;99568.97;5033563;28;20037;-70
2023/03/09 08:17:52;;;;;;;50.57;33.00;;;3.80;99.90;;;3.90;95.84;99569.88;5033575;28;20493;-70
2023/03/09 08:20:20;;;;;;;50.05;30.02;;;3.80;99.90;;;3.57;95.66;99582.88;5032459;28;20455;-69
2023/03/09 08:22:49;;;;;;;47.70;31.43;;;3.50;99.90;;;3.61;97.03;99605.53;5033767;28;20040;-69
2023/03/09 08:25:18;;;;;;;49.67;31.67;;;3.50;99.90;;;3.46;96.79;99499.22;5032187;28;20073;-68
2023/03/09 08:27:47;;;;;;;55.50;35.23;;;3.80;99.90;;;3.99;95.96;99614.31;5033553;28;20046;-69
2023/03/09 08:30:20;;;;;;;56.00;33.67;;;3.80;99.90;;;4.35;95.98;99634.44;5033470;28;20049;-67
2023/03/09 08:32:49;;;;;;;52.77;32.50;;;4.10;99.90;;;4.49;94.72;99649.25;5032264;28;20140;-68
2023/03/09 08:35:21;;;;;;;53.13;32.23;;;4.30;99.90;;;4.42;93.12;99641.41;5033095;28;20412;-67
2023/03/09 08:37:50;;;;;;;51.63;30.73;;;4.40;99.90;;;4.06;93.12;99629.19;5033423;28;20124;-69
2023/03/09 08:40:19;;;;;;;50.77;31.27;;;4.00;99.90;;;3.69;94.51;99624.75;5033313;28;20041;-70
2023/03/09 08:42:47;;;;;;;56.17;32.40;;;3.70;99.90;;;3.42;96.26;99624.63;5033317;28;20045;-69
2023/03/09 08:45:16;;;;;;;63.20;36.23;;;3.40;99.90;;;2.95;97.67;99551.28;5032049;28;20389;-68
2023/03/09 08:47:45;;;;;;;57.37;33.87;;;3.30;99.90;;;2.60;98.04;99504.16;5015712;28;20147;-69
2023/03/09 08:50:14;;;;;;;60.47;33.95;;;3.20;99.90;;;3.24;98.71;99621.94;5033033;28;20041;-69
2023/03/09 08:52:44;;;;;;;53.50;32.33;;;3.10;99.90;;;3.44;98.68;99607.22;5031190;28;20117;-70
2023/03/09 08:55:13;;;;;;;;;;;3.30;99.90;;;3.60;97.21;99632.56;5032072;28;20069;-69
2023/03/09 08:57:41;;;;;;;57.03;34.60;;;3.50;99.90;;;3.53;97.92;99620.31;5032864;28;20291;-70
2023/03/09 09:00:12;;;;;;;59.67;32.60;;;3.50;99.90;;;3.47;97.75;99575.88;5032789;28;20117;-70
2023/03/09 09:02:41;;;;;;;56.07;33.90;;;3.70;99.90;;;3.84;97.01;99622.16;5032757;28;20403;-70
2023/03/09 09:05:10;;;;;;;55.13;33.20;;;3.70;99.90;;;3.91;96.31;99634.34;5031663;28;20459;-70
2023/03/09 09:07:40;;;;;;;57.20;33.80;;;3.80;99.90;;;3.78;96.97;99631.72;5032536;28;20147;-70
2023/03/09 09:10:14;;;;;;;59.63;34.33;;;3.70;99.90;;;3.81;96.19;99650.03;5031503;28;20049;-70
2023/03/09 09:13:01;;;;;;;54.30;34.00;;;3.70;99.90;;;3.88;96.19;99646.56;5032727;28;20049;-70
2023/03/09 09:15:29;;;;;;;59.83;35.43;;;3.80;99.90;;;3.57;96.60;99640.38;5032449;28;20085;-70
2023/03/09 09:17:58;;;;;;;57.73;34.97;;;3.60;99.90;;;3.81;96.82;99665.72;5032354;28;20128;-70
2023/03/09 09:20:27;;;;;;;56.17;34.67;;;3.70;99.90;;;3.68;96.62;99668.28;5032501;28;20034;-69
2023/03/09 09:22:55;;;;;;;55.37;34.63;;;3.60;99.90;;;4.18;97.13;99678.03;5031267;28;20053;-70
2023/03/09 09:25:25;;;;;;;61.53;35.93;;;3.90;99.90;;;4.14;95.83;99677.13;5032540;28;20060;-69
2023/03/09 09:27:54;;;;;;;53.90;33.33;;;4.00;99.90;;;4.21;95.61;99668.44;5032205;28;20059;-70
2023/03/09 09:30:22;;;;;;;59.63;34.83;;;4.10;99.90;;;4.20;95.19;99673.69;5032155;28;20448;-70
2023/03/09 09:32:51;;;;;;;54.13;34.33;;;4.10;99.90;;;4.33;94.87;99668.47;5032406;28;20146;-70
2023/03/09 09:35:19;;;;;;;56.30;33.83;;;4.30;99.90;;;4.42;94.70;99670.19;5032040;28;20412;-70
2023/03/09 09:37:47;;;;;;;52.13;33.07;;;4.30;99.90;;;4.71;94.44;99667.56;5032210;28;20100;-70
2023/03/09 09:40:17;;;;;;;58.23;34.90;;;4.50;99.90;;;4.79;93.55;99673.69;5032171;28;20128;-70
2023/03/09 09:42:47;;;;;;;56.10;35.30;;;4.70;99.90;;;4.95;93.16;99683.28;5032334;28;20408;-70
2023/03/09 09:45:25;;;;;;;;;;;4.80;99.90;;;5.10;92.59;99678.03;5031449;28;20141;-69
2023/03/09 09:47:55;;;;;;;63.00;35.50;;;5.00;99.90;;;4.96;91.74;99669.31;5031948;28;20354;-70
2023/03/09 09:50:39;;;;;;;59.42;34.70;;;5.00;99.90;;;4.50;90.97;99629.19;5032339;28;20081;-71
2023/03/09 09:53:19;;;;;;;54.40;32.90;;;4.90;99.90;;;4.62;91.08;99681.56;5032040;28;20107;-70
2023/03/09 09:55:51;;;;;;;59.85;35.63;;;4.70;99.90;;;4.81;92.30;99661.47;5030893;28;20049;-69
2023/03/09 09:58:33;;;;;;;56.60;34.00;;;4.70;99.90;;;5.01;91.79;99654.47;5030778;28;20065;-70
2023/03/09 10:01:11;;;;;;;57.87;35.23;;;4.90;99.90;;;5.01;91.36;99659.72;5031988;28;20046;-70
2023/03/09 10:03:46;;;;;;;59.73;33.87;;;4.90;99.90;;;4.74;91.31;99651.88;5032333;28;20057;-70
2023/03/09 10:06:18;;;;;;;57.67;34.53;;;4.80;99.90;;;4.01;92.59;99648.31;5034951;28;20419;-70
2023/03/09 10:08:51;;;;;;;56.80;34.40;;;4.20;99.90;;;3.93;94.50;99644.84;5036099;28;20042;-70
2023/03/09 10:11:25;;;;;;;58.03;34.20;;;3.90;99.90;;;3.60;95.19;99641.25;5036326;28;20045;-70
2023/03/09 10:14:04;;;;;;;60.00;35.23;;;3.60;99.90;;;3.82;96.72;99625.63;5036012;28;20111;-71
2023/03/09 10:16:40;;;;;;;62.67;35.33;;;3.60;99.90;;;4.03;95.81;99647.47;5035938;28;20068;-70
2023/03/09 10:19:16;;;;;;;59.00;35.53;;;3.90;99.90;;;3.70;96.88;99631.69;5036195;28;20099;-70
2023/03/09 10:21:50;;;;;;;59.93;34.40;;;3.80;99.90;;;3.84;97.42;99650.91;5036106;28;20543;-70
2023/03/09 10:24:25;;;;;;;65.73;35.90;;;3.80;99.90;;;3.67;96.93;99648.25;5035921;28;20476;-70
2023/03/09 10:27:01;;;;;;;63.07;37.13;;;3.70;99.90;;;3.75;97.73;99643.06;5036108;28;20092;-70
2023/03/09 10:29:43;;;;;;;64.10;35.83;;;3.80;99.90;;;3.80;97.58;99671.81;5035964;28;20045;-70
2023/03/09 10:32:21;;;;;;;58.03;34.30;;;3.80;99.90;;;3.62;97.73;99683.97;5035853;28;20057;-70
2023/03/09 10:34:57;;;;;;;59.17;35.23;;;3.60;99.90;;;3.65;98.70;99672.66;5035866;28;20072;-70